Time;durP1;ratioP1;P1;durP2;ratioP2;P2;SDS_P1;SDS_P2;PMS_P1;PMS_P2;Temp;Humidity;BMP_temperature;BMP_pressure;BME280_temperature;BME280_humidity;BME280_pressure;Samples;Min_cycle;Max_cycle;Signal;HPM_P1;HPM_P2
2022/04/09 00:01:16;;;;;;;7.50;1.40;;;3.80;99.90;;;;;;5056348;28;20206;-47
2022/04/09 00:03:44;;;;;;;5.33;1.07;;;3.90;99.90;;;;;;5053190;28;20213;-46
2022/04/09 00:06:11;;;;;;;3.77;1.17;;;3.90;99.90;;;;;;5055633;28;20201;-47
2022/04/09 00:08:38;;;;;;;7.27;1.50;;;3.80;99.90;;;;;;5050905;28;20211;-47
2022/04/09 00:11:04;;;;;;;2.70;1.00;;;3.80;99.90;;;;;;5054569;28;20190;-46
2022/04/09 00:13:31;;;;;;;2.97;1.07;;;3.60;99.90;;;;;;5054294;28;20203;-47
2022/04/09 00:15:57;;;;;;;3.17;1.13;;;3.70;99.90;;;;;;5054757;28;20897;-44
2022/04/09 00:18:24;;;;;;;5.67;1.10;;;3.70;99.90;;;;;;5062719;28;20231;-44
2022/04/09 00:20:53;;;;;;;7.97;1.33;;;3.80;99.90;;;;;;5058952;28;20194;-45
2022/04/09 00:23:20;;;;;;;6.40;1.23;;;3.70;99.90;;;;;;5046967;28;20208;-46
2022/04/09 00:25:47;;;;;;;3.83;1.30;;;3.40;99.90;;;;;;5057755;28;20585;-45
2022/04/09 00:28:14;;;;;;;2.90;1.17;;;3.50;99.90;;;;;;5062044;28;20215;-45
2022/04/09 00:30:41;;;;;;;5.73;1.17;;;3.60;99.90;;;;;;5054068;28;20206;-45
2022/04/09 00:33:07;;;;;;;4.33;1.20;;;3.60;99.90;;;;;;5059944;28;20219;-43
2022/04/09 00:35:35;;;;;;;6.20;1.53;;;3.50;99.90;;;;;;5061332;28;20203;-43
2022/04/09 00:38:03;;;;;;;1.77;1.30;;;3.30;99.90;;;;;;5059770;28;20302;-44
2022/04/09 00:40:30;;;;;;;6.93;1.50;;;3.30;99.90;;;;;;5049590;28;20207;-45
2022/04/09 00:42:58;;;;;;;3.43;1.10;;;3.50;99.90;;;;;;5059302;28;20194;-43
2022/04/09 00:45:25;;;;;;;5.50;1.10;;;3.50;99.90;;;;;;5059014;28;20203;-46
2022/04/09 00:47:52;;;;;;;5.60;1.10;;;3.40;99.90;;;;;;5060123;28;20276;-44
2022/04/09 00:50:19;;;;;;;6.97;1.20;;;3.40;99.90;;;;;;5066156;28;20205;-50
2022/04/09 00:52:51;;;;;;;7.80;1.70;;;3.30;99.90;;;;;;5062199;28;20652;-46
2022/04/09 00:56:12;;;;;;;3.83;0.97;;;3.40;99.90;;;;;;5046366;28;21016;-44
2022/04/09 00:58:17;;;;;;;4.10;1.50;;;3.20;99.90;;;;;;5063016;28;20714;-43
2022/04/09 01:00:44;;;;;;;4.87;1.30;;;3.20;99.90;;;;;;5069299;28;20220;-47
2022/04/09 01:03:16;;;;;;;2.70;1.30;;;3.30;99.90;;;;;;5064347;28;20647;-48
2022/04/09 01:05:44;;;;;;;3.17;1.57;;;3.30;99.90;;;;;;5058167;28;20251;-47
2022/04/09 01:08:11;;;;;;;4.70;1.53;;;3.30;99.90;;;;;;5066670;28;20598;-43
2022/04/09 01:10:39;;;;;;;1.23;0.90;;;3.20;99.90;;;;;;5050030;28;20206;-46
2022/04/09 01:13:07;;;;;;;3.23;1.43;;;3.10;99.90;;;;;;5063747;28;20256;-45
2022/04/09 01:15:34;;;;;;;2.67;1.10;;;3.20;99.90;;;;;;5060433;28;20266;-46
2022/04/09 01:18:02;;;;;;;3.93;1.20;;;3.20;99.90;;;;;;5057633;28;20309;-43
2022/04/09 01:20:30;;;;;;;2.83;0.90;;;3.20;99.90;;;;;;5063590;28;20245;-44
2022/04/09 01:22:58;;;;;;;2.97;1.30;;;3.20;99.90;;;;;;5061828;28;20197;-43
2022/04/09 01:25:25;;;;;;;5.40;1.83;;;3.20;99.90;;;;;;5052520;28;20663;-43
2022/04/09 01:27:57;;;;;;;5.53;1.50;;;3.20;99.90;;;;;;5059332;28;20281;-44
2022/04/09 01:30:24;;;;;;;7.40;1.20;;;3.20;99.90;;;;;;5063574;28;20554;-44
2022/04/09 01:32:51;;;;;;;3.20;1.13;;;3.20;99.90;;;;;;5055181;28;20203;-48
2022/04/09 01:35:18;;;;;;;2.97;1.60;;;3.20;99.90;;;;;;5065193;28;20221;-46
2022/04/09 01:37:46;;;;;;;4.53;1.73;;;3.20;99.90;;;;;;5060080;28;20219;-43
2022/04/09 01:40:14;;;;;;;3.30;1.17;;;3.20;99.90;;;;;;5054123;28;20194;-45
2022/04/09 01:42:46;;;;;;;4.37;1.23;;;3.20;99.90;;;;;;5059411;28;20199;-45
2022/04/09 01:45:13;;;;;;;4.47;1.10;;;3.20;99.90;;;;;;5063383;28;20248;-44
2022/04/09 01:47:42;;;;;;;5.13;1.23;;;3.10;99.90;;;;;;5055007;28;20636;-43
2022/04/09 01:50:11;;;;;;;3.73;1.00;;;3.10;99.90;;;;;;5073424;28;20195;-46
2022/04/09 01:52:38;;;;;;;4.17;1.00;;;3.00;99.90;;;;;;5061402;28;20591;-44
2022/04/09 01:55:06;;;;;;;3.60;1.00;;;3.20;99.90;;;;;;5055380;28;20183;-44
2022/04/09 01:57:35;;;;;;;8.67;2.53;;;3.10;99.90;;;;;;5040643;28;20223;-47
2022/04/09 02:00:08;;;;;;;5.43;1.30;;;3.00;99.90;;;;;;5061379;28;20195;-45
2022/04/09 02:02:40;;;;;;;2.57;1.10;;;3.10;99.90;;;;;;5053950;28;20612;-45
2022/04/09 02:05:08;;;;;;;4.60;1.53;;;3.20;99.90;;;;;;5061603;28;20206;-45
2022/04/09 02:07:36;;;;;;;3.83;1.13;;;3.00;99.90;;;;;;5059789;28;20218;-46
2022/04/09 02:10:03;;;;;;;4.97;1.10;;;3.00;99.90;;;;;;5060994;28;20193;-43
2022/04/09 02:12:33;;;;;;;2.67;1.03;;;3.00;99.90;;;;;;5043819;28;20215;-46
2022/04/09 02:15:03;;;;;;;4.57;0.90;;;2.90;99.90;;;;;;5059686;28;20908;-46
2022/04/09 02:17:30;;;;;;;3.23;1.20;;;2.90;99.90;;;;;;5059776;28;20227;-43
2022/04/09 02:19:57;;;;;;;2.23;1.30;;;2.90;99.90;;;;;;5055005;28;20190;-42
2022/04/09 02:22:24;;;;;;;4.37;1.17;;;2.90;99.90;;;;;;5063052;28;20297;-47
2022/04/09 02:24:51;;;;;;;3.67;1.20;;;2.90;99.90;;;;;;5058656;28;20884;-46
2022/04/09 02:27:18;;;;;;;5.67;1.03;;;2.90;99.90;;;;;;5063554;28;20225;-46
2022/04/09 02:29:46;;;;;;;4.47;1.10;;;2.80;99.90;;;;;;5044745;28;20213;-48
2022/04/09 02:32:14;;;;;;;4.17;1.07;;;2.80;99.90;;;;;;5062529;28;20202;-44
2022/04/09 02:34:41;;;;;;;4.93;1.13;;;2.80;99.90;;;;;;5055109;28;20199;-45
2022/04/09 02:37:08;;;;;;;5.40;1.30;;;2.80;99.90;;;;;;5061035;28;20226;-44
2022/04/09 02:39:35;;;;;;;1.00;0.90;;;2.80;99.90;;;;;;5060832;28;20245;-44
2022/04/09 02:42:02;;;;;;;2.03;1.00;;;2.80;99.90;;;;;;5060209;28;20259;-44
2022/04/09 02:44:30;;;;;;;9.20;1.40;;;2.80;99.90;;;;;;5047027;28;20217;-46
2022/04/09 02:46:57;;;;;;;4.53;1.40;;;2.80;99.90;;;;;;5054351;28;20237;-44
2022/04/09 02:49:25;;;;;;;5.10;1.40;;;2.70;99.90;;;;;;5057335;28;20285;-44
2022/04/09 02:51:53;;;;;;;5.23;1.17;;;2.70;99.90;;;;;;5058324;28;20202;-43
2022/04/09 02:54:21;;;;;;;4.77;1.00;;;2.60;99.90;;;;;;5062534;28;20202;-44
2022/04/09 02:56:50;;;;;;;3.43;1.20;;;2.70;99.90;;;;;;5059147;28;20221;-44
2022/04/09 02:59:21;;;;;;;4.77;1.20;;;2.70;99.90;;;;;;5048048;28;20203;-44
2022/04/09 03:01:48;;;;;;;3.83;1.53;;;2.70;99.90;;;;;;5057266;28;20207;-43
2022/04/09 03:04:17;;;;;;;5.50;1.37;;;2.90;99.90;;;;;;5062179;28;20294;-44
2022/04/09 03:06:47;;;;;;;6.90;1.37;;;2.60;99.90;;;;;;5053298;28;20289;-43
2022/04/09 03:09:15;;;;;;;3.40;1.50;;;2.80;99.90;;;;;;5062410;28;20570;-43
2022/04/09 03:11:42;;;;;;;4.07;1.60;;;2.60;99.90;;;;;;5051751;28;20313;-46
2022/04/09 03:14:09;;;;;;;7.20;1.70;;;2.70;99.90;;;;;;5057648;28;20218;-47
2022/04/09 03:16:36;;;;;;;1.20;1.10;;;2.80;99.90;;;;;;5045950;28;20279;-44
2022/04/09 03:19:02;;;;;;;2.10;1.13;;;2.80;99.90;;;;;;5063267;28;20206;-43
2022/04/09 03:21:30;;;;;;;3.53;1.10;;;2.70;99.90;;;;;;5052107;28;20201;-43
2022/04/09 03:23:58;;;;;;;5.87;1.47;;;2.60;99.90;;;;;;5063068;28;20190;-44
2022/04/09 03:26:25;;;;;;;9.73;1.50;;;2.80;99.90;;;;;;5058469;28;20201;-46
2022/04/09 03:28:56;;;;;;;4.90;1.30;;;2.50;99.90;;;;;;5061697;28;20709;-49
2022/04/09 03:31:23;;;;;;;4.10;1.27;;;2.60;99.90;;;;;;5045779;28;20217;-46
2022/04/09 03:33:52;;;;;;;6.30;1.57;;;2.60;99.90;;;;;;5062403;28;20198;-45
2022/04/09 03:36:21;;;;;;;4.80;1.30;;;2.60;99.90;;;;;;5054193;28;20206;-45
2022/04/09 03:38:48;;;;;;;1.27;1.10;;;2.70;99.90;;;;;;5059929;28;20805;-45
2022/04/09 03:41:18;;;;;;;4.53;1.60;;;2.60;99.90;;;;;;5057258;28;20208;-45
2022/04/09 03:43:53;;;;;;;3.27;1.30;;;2.60;99.90;;;;;;5061247;28;20259;-48
2022/04/09 03:46:21;;;;;;;6.77;1.73;;;2.70;99.90;;;;;;5040843;28;20571;-46
2022/04/09 03:48:48;;;;;;;3.57;1.30;;;2.70;99.90;;;;;;5060953;28;20253;-43
2022/04/09 03:51:16;;;;;;;6.40;1.40;;;2.40;99.90;;;;;;5056536;28;20285;-45
2022/04/09 03:53:45;;;;;;;6.30;1.50;;;2.70;99.90;;;;;;5058159;28;20198;-46
2022/04/09 03:56:12;;;;;;;6.40;1.50;;;2.70;99.90;;;;;;5060233;28;20206;-45
2022/04/09 03:58:45;;;;;;;4.60;1.47;;;2.40;99.90;;;;;;5059671;28;20779;-45
2022/04/09 04:01:16;;;;;;;4.47;1.53;;;2.60;99.90;;;;;;5047845;28;20214;-48
2022/04/09 04:03:45;;;;;;;2.77;1.47;;;2.60;99.90;;;;;;5056500;28;20202;-49
2022/04/09 04:06:13;;;;;;;2.03;1.40;;;2.60;99.90;;;;;;5059162;28;20545;-45
2022/04/09 04:08:40;;;;;;;3.90;1.30;;;2.50;99.90;;;;;;5052091;28;20223;-44
2022/04/09 04:11:11;;;;;;;7.30;2.13;;;2.50;99.90;;;;;;5060770;28;20198;-44
2022/04/09 04:13:40;;;;;;;4.43;1.37;;;2.50;99.90;;;;;;5057832;28;20199;-45
2022/04/09 04:16:12;;;;;;;3.20;1.67;;;2.50;99.90;;;;;;5058714;28;20195;-48
2022/04/09 04:18:43;;;;;;;4.33;2.53;;;2.40;99.90;;;;;;5045886;28;20210;-47
2022/04/09 04:21:11;;;;;;;3.37;1.57;;;2.40;99.90;;;;;;5063464;28;20191;-47
2022/04/09 04:23:39;;;;;;;5.00;1.20;;;2.50;99.90;;;;;;5049211;28;20226;-47
2022/04/09 04:26:18;;;;;;;3.97;1.27;;;2.40;99.90;;;;;;5064743;28;20216;-44
2022/04/09 04:28:48;;;;;;;3.33;1.60;;;2.40;99.90;;;;;;5056245;28;20703;-48
2022/04/09 04:31:19;;;;;;;5.53;1.40;;;2.40;99.90;;;;;;5065081;28;20217;-46
2022/04/09 04:33:46;;;;;;;6.30;1.30;;;2.40;99.90;;;;;;5046670;28;20212;-46
2022/04/09 04:36:14;;;;;;;6.27;1.70;;;2.40;99.90;;;;;;5063725;28;20195;-47
2022/04/09 04:38:43;;;;;;;4.33;1.37;;;2.40;99.90;;;;;;5052740;28;20284;-49
2022/04/09 04:41:10;;;;;;;4.00;1.90;;;2.50;99.90;;;;;;5063296;28;20904;-46
2022/04/09 04:43:38;;;;;;;5.30;1.63;;;2.50;99.90;;;;;;5060488;28;20203;-49
2022/04/09 04:46:06;;;;;;;4.10;1.63;;;2.50;99.90;;;;;;5059026;28;20206;-45
2022/04/09 04:48:36;;;;;;;5.40;1.50;;;2.50;99.90;;;;;;5060869;28;20629;-48
2022/04/09 04:51:06;;;;;;;3.70;1.60;;;2.50;99.90;;;;;;5055649;28;20198;-46
2022/04/09 04:53:34;;;;;;;4.77;1.40;;;2.50;99.90;;;;;;5056997;28;20681;-44
2022/04/09 04:56:02;;;;;;;5.50;1.90;;;2.50;99.90;;;;;;5062798;28;20288;-46
2022/04/09 04:58:39;;;;;;;5.67;1.60;;;2.50;99.90;;;;;;5066090;28;20803;-47
2022/04/09 05:01:07;;;;;;;3.57;1.50;;;2.60;99.90;;;;;;5062533;28;20968;-47
2022/04/09 05:03:39;;;;;;;10.20;1.73;;;2.50;99.90;;;;;;5060006;28;20187;-46
2022/04/09 05:06:17;;;;;;;4.30;1.67;;;2.60;99.90;;;;;;5060082;28;20198;-49
2022/04/09 05:08:46;;;;;;;6.03;1.93;;;2.70;99.90;;;;;;5064831;28;20233;-47
2022/04/09 05:11:17;;;;;;;7.13;2.00;;;2.70;99.90;;;;;;5058966;28;20207;-45
2022/04/09 05:13:45;;;;;;;6.67;2.00;;;2.80;99.90;;;;;;5060172;28;20252;-47
2022/04/09 05:16:13;;;;;;;12.00;1.97;;;2.80;99.90;;;;;;5047224;28;20260;-44
2022/04/09 05:18:51;;;;;;;12.60;2.00;;;2.90;99.90;;;;;;5059023;28;20278;-44
2022/04/09 05:21:17;;;;;;;5.60;1.93;;;2.90;99.90;;;;;;5041492;28;20214;-46
2022/04/09 05:23:44;;;;;;;8.10;2.30;;;3.00;99.90;;;;;;5052997;28;20348;-44
2022/04/09 05:26:11;;;;;;;8.70;2.17;;;3.00;99.90;;;;;;5054893;28;20214;-45
2022/04/09 05:28:39;;;;;;;12.37;1.77;;;3.00;99.90;;;;;;5057388;28;20361;-45
2022/04/09 05:31:08;;;;;;;5.70;2.20;;;3.10;99.90;;;;;;5062393;28;20210;-45
2022/04/09 05:33:35;;;;;;;12.83;2.63;;;3.10;99.90;;;;;;5065269;28;20203;-46
2022/04/09 05:36:05;;;;;;;8.07;2.00;;;3.10;99.90;;;;;;5047574;28;20746;-45
2022/04/09 05:38:32;;;;;;;6.60;2.30;;;3.20;99.90;;;;;;5052679;28;20222;-46
2022/04/09 05:41:01;;;;;;;10.17;2.13;;;3.20;99.90;;;;;;5051950;28;20253;-48
2022/04/09 05:43:29;;;;;;;7.63;2.47;;;3.30;99.90;;;;;;5057291;28;20191;-45
2022/04/09 05:45:59;;;;;;;3.97;1.70;;;3.40;99.90;;;;;;5059272;28;20573;-49
2022/04/09 05:48:33;;;;;;;6.57;2.00;;;3.40;99.90;;;;;;5058059;28;20202;-47
2022/04/09 05:51:00;;;;;;;9.50;2.10;;;3.50;99.90;;;;;;5057831;28;20206;-45
2022/04/09 05:53:31;;;;;;;8.10;2.17;;;3.60;99.90;;;;;;5045417;28;20207;-45
2022/04/09 05:55:59;;;;;;;6.40;2.17;;;3.70;99.90;;;;;;5056078;28;20198;-45
2022/04/09 05:58:32;;;;;;;7.30;2.23;;;3.70;99.90;;;;;;5050225;28;20214;-43
2022/04/09 06:01:01;;;;;;;4.77;2.60;;;3.80;99.90;;;;;;5057738;28;20213;-46
2022/04/09 06:03:34;;;;;;;5.67;2.10;;;3.80;99.90;;;;;;5055311;28;20217;-47
2022/04/09 06:06:02;;;;;;;3.37;2.00;;;3.80;99.90;;;;;;5054081;28;20202;-47
2022/04/09 06:08:38;;;;;;;9.50;2.93;;;3.60;99.90;;;;;;5043969;28;20210;-46
2022/04/09 06:11:15;;;;;;;5.33;2.00;;;3.50;99.90;;;;;;5055652;28;20346;-44
2022/04/09 06:13:44;;;;;;;9.80;2.53;;;3.40;99.90;;;;;;5055418;28;20234;-47
2022/04/09 06:16:11;;;;;;;6.87;2.20;;;3.30;99.90;;;;;;5056468;28;20313;-48
2022/04/09 06:18:43;;;;;;;3.57;1.90;;;3.20;99.90;;;;;;5056987;28;20218;-47
2022/04/09 06:21:13;;;;;;;7.23;2.47;;;3.10;99.90;;;;;;5052074;28;20803;-48
2022/04/09 06:23:41;;;;;;;7.30;2.37;;;3.00;99.90;;;;;;5047412;28;20218;-46
2022/04/09 06:26:09;;;;;;;7.63;2.43;;;2.90;99.90;;;;;;5047499;28;20958;-44
2022/04/09 06:28:37;;;;;;;7.57;2.80;;;2.90;99.90;;;;;;5046691;28;20252;-43
2022/04/09 06:31:04;;;;;;;5.43;2.50;;;3.00;99.90;;;;;;5047317;28;20256;-49
2022/04/09 06:33:34;;;;;;;6.33;2.53;;;3.00;99.90;;;;;;5057155;28;20202;-47
2022/04/09 06:36:05;;;;;;;9.03;2.93;;;3.10;99.90;;;;;;5055792;28;20676;-44
2022/04/09 06:38:34;;;;;;;11.07;2.63;;;3.10;99.90;;;;;;5054138;28;20222;-45
2022/04/09 06:41:05;;;;;;;10.90;2.70;;;3.10;99.90;;;;;;5044318;28;20210;-49
2022/04/09 06:43:37;;;;;;;8.57;3.50;;;3.20;99.90;;;;;;5056843;28;20248;-44
2022/04/09 06:46:14;;;;;;;8.83;3.33;;;3.30;99.90;;;;;;5053260;28;20209;-44
2022/04/09 06:48:52;;;;;;;10.07;2.90;;;3.40;99.90;;;;;;5061051;28;20224;-48
2022/04/09 06:51:36;;;;;;;9.97;3.03;;;3.50;99.90;;;;;;5062128;28;20202;-51
2022/04/09 06:54:10;;;;;;;8.53;2.77;;;3.60;99.90;;;;;;5042387;28;20214;-46
2022/04/09 06:56:40;;;;;;;7.13;2.27;;;3.80;99.90;;;;;;5049458;28;20302;-46
2022/04/09 06:59:07;;;;;;;14.80;2.43;;;3.90;99.90;;;;;;5058405;28;20229;-45
2022/04/09 07:01:34;;;;;;;7.63;2.33;;;4.00;99.90;;;;;;5047897;28;20202;-45
2022/04/09 07:04:01;;;;;;;5.80;2.20;;;4.00;99.90;;;;;;5063778;28;20191;-45
2022/04/09 07:06:30;;;;;;;10.43;2.60;;;4.10;99.90;;;;;;5053808;28;20703;-52
2022/04/09 07:08:56;;;;;;;7.97;2.30;;;4.20;99.90;;;;;;5052810;28;20216;-47
2022/04/09 07:11:24;;;;;;;4.77;1.97;;;4.30;99.90;;;;;;5045267;28;20284;-52
2022/04/09 07:13:52;;;;;;;3.07;1.70;;;4.30;99.90;;;;;;5055953;28;20263;-46
2022/04/09 07:16:19;;;;;;;5.23;1.70;;;4.40;99.90;;;;;;5053028;28;20203;-52
2022/04/09 07:18:46;;;;;;;6.13;2.10;;;4.40;99.90;;;;;;5057240;28;20214;-45
2022/04/09 07:21:13;;;;;;;3.33;1.67;;;4.50;99.90;;;;;;5061950;28;20217;-49
2022/04/09 07:23:39;;;;;;;3.93;1.90;;;4.60;99.90;;;;;;5059278;28;20204;-46
2022/04/09 07:26:06;;;;;;;5.97;1.70;;;4.70;99.90;;;;;;5048028;28;20218;-49
2022/04/09 07:28:33;;;;;;;7.37;1.83;;;4.70;99.90;;;;;;5045986;28;20242;-50
2022/04/09 07:31:01;;;;;;;7.80;2.10;;;4.70;99.90;;;;;;5057547;28;20198;-45
2022/04/09 07:33:27;;;;;;;4.40;1.67;;;4.80;99.90;;;;;;5053509;28;20213;-50
2022/04/09 07:35:54;;;;;;;7.87;1.80;;;4.80;99.90;;;;;;5060969;28;20281;-45
2022/04/09 07:38:21;;;;;;;3.50;1.77;;;5.00;99.90;;;;;;5060032;28;20230;-46
2022/04/09 07:40:48;;;;;;;4.90;1.63;;;5.10;99.90;;;;;;5061301;28;20194;-49
2022/04/09 07:43:15;;;;;;;6.63;2.17;;;5.10;99.90;;;;;;5050848;28;20214;-50
2022/04/09 07:45:41;;;;;;;4.27;1.57;;;5.10;99.90;;;;;;5057783;28;20197;-48
2022/04/09 07:48:11;;;;;;;3.40;1.47;;;5.10;99.90;;;;;;5051194;28;20222;-47
2022/04/09 07:50:38;;;;;;;6.67;1.50;;;5.20;99.90;;;;;;5054442;28;20193;-48
2022/04/09 07:53:04;;;;;;;4.87;1.67;;;5.20;99.90;;;;;;5059927;28;20187;-46
2022/04/09 07:55:31;;;;;;;2.83;1.10;;;5.20;99.90;;;;;;5060154;28;20202;-49
2022/04/09 07:57:58;;;;;;;2.13;1.33;;;5.30;99.90;;;;;;5049205;28;20218;-49
2022/04/09 08:00:25;;;;;;;3.63;1.20;;;5.40;99.90;;;;;;5063998;28;20684;-47
2022/04/09 08:02:51;;;;;;;5.90;1.43;;;5.50;99.90;;;;;;5060802;28;20507;-48
2022/04/09 08:05:19;;;;;;;7.07;1.30;;;5.60;99.90;;;;;;5061131;28;20285;-47
2022/04/09 08:07:47;;;;;;;6.80;1.17;;;5.70;99.90;;;;;;5056968;28;20815;-48
2022/04/09 08:10:14;;;;;;;4.50;1.43;;;5.70;99.90;;;;;;5062267;28;20278;-46
2022/04/09 08:12:45;;;;;;;4.17;1.13;;;5.80;99.90;;;;;;5062278;28;20194;-50
2022/04/09 08:15:12;;;;;;;3.00;1.40;;;5.90;99.90;;;;;;5057989;28;20228;-47
2022/04/09 08:17:39;;;;;;;5.50;1.07;;;6.00;99.90;;;;;;5065761;28;20210;-49
2022/04/09 08:20:06;;;;;;;4.63;1.33;;;6.00;99.90;;;;;;5055070;28;20217;-46
2022/04/09 08:22:35;;;;;;;6.10;1.27;;;6.10;99.90;;;;;;5061825;28;20206;-45
2022/04/09 08:25:02;;;;;;;3.03;1.17;;;6.20;99.90;;;;;;5056811;28;20504;-46
2022/04/09 08:27:29;;;;;;;5.43;1.40;;;6.20;99.90;;;;;;5060332;28;20886;-48
2022/04/09 08:29:56;;;;;;;3.13;1.00;;;6.20;99.90;;;;;;5053968;28;20202;-48
2022/04/09 08:32:25;;;;;;;6.67;1.13;;;6.10;99.90;;;;;;5059650;28;20202;-51
2022/04/09 08:34:53;;;;;;;3.47;1.10;;;6.00;99.90;;;;;;5056364;28;20198;-52
2022/04/09 08:37:22;;;;;;;2.30;1.17;;;5.90;99.90;;;;;;5059844;28;20218;-45
2022/04/09 08:39:50;;;;;;;8.33;2.30;;;5.80;99.90;;;;;;5059498;28;20219;-49
2022/04/09 08:42:17;;;;;;;8.80;1.63;;;5.80;99.90;;;;;;5063964;28;20202;-52
2022/04/09 08:44:44;;;;;;;2.63;1.10;;;6.00;99.90;;;;;;5051786;28;20198;-48
2022/04/09 08:47:15;;;;;;;3.23;1.17;;;6.00;99.90;;;;;;5058582;28;20216;-50
2022/04/09 08:49:44;;;;;;;2.73;0.93;;;6.10;99.90;;;;;;5064814;28;20859;-48
2022/04/09 08:52:12;;;;;;;4.47;1.03;;;6.30;99.90;;;;;;5060101;28;20195;-49
2022/04/09 08:54:40;;;;;;;2.90;1.07;;;6.40;99.90;;;;;;5059328;28;20198;-46
2022/04/09 08:57:09;;;;;;;4.30;1.00;;;6.90;99.90;;;;;;5057330;28;20233;-47
2022/04/09 08:59:36;;;;;;;6.00;0.90;;;6.40;99.90;;;;;;5055525;28;20211;-50
2022/04/09 09:02:04;;;;;;;7.53;1.10;;;7.90;99.90;;;;;;5058625;28;20210;-49
2022/04/09 09:04:31;;;;;;;2.87;0.80;;;6.70;99.90;;;;;;5064791;28;20212;-50
2022/04/09 09:07:17;;;;;;;4.80;1.20;;;6.80;99.90;;;;;;5058094;28;20217;-45
2022/04/09 09:09:43;;;;;;;4.70;1.17;;;7.00;99.90;;;;;;5062377;28;20199;-49
2022/04/09 09:12:14;;;;;;;5.97;0.90;;;7.00;99.90;;;;;;5065589;28;20307;-47
2022/04/09 09:14:46;;;;;;;3.70;1.07;;;7.10;99.90;;;;;;5051709;28;20187;-47
2022/04/09 09:17:13;;;;;;;6.10;0.70;;;7.20;99.90;;;;;;5055953;28;20272;-46
2022/04/09 09:19:42;;;;;;;7.87;1.10;;;7.30;99.90;;;;;;5050477;28;20206;-50
2022/04/09 09:22:09;;;;;;;5.10;0.90;;;7.30;99.90;;;;;;5057133;28;20210;-50
2022/04/09 09:24:36;;;;;;;7.83;1.60;;;7.40;99.90;;;;;;5055392;28;20218;-50
2022/04/09 09:27:05;;;;;;;7.37;1.47;;;7.30;99.90;;;;;;5061472;28;20214;-49
2022/04/09 09:29:35;;;;;;;3.73;1.17;;;7.10;99.90;;;;;;5058824;28;20195;-51
2022/04/09 09:32:03;;;;;;;3.50;1.33;;;6.80;99.90;;;;;;5050855;28;21123;-45
2022/04/09 09:34:30;;;;;;;3.87;1.00;;;6.30;99.90;;;;;;5058871;28;20657;-50
2022/04/09 09:36:57;;;;;;;5.77;1.03;;;6.10;99.90;;;;;;5060242;28;20220;-48
2022/04/09 09:39:25;;;;;;;7.60;1.33;;;6.00;99.90;;;;;;5061432;28;20219;-48
2022/04/09 09:41:53;;;;;;;3.80;1.47;;;5.90;99.90;;;;;;5056578;28;20190;-48
2022/04/09 09:44:22;;;;;;;10.13;1.60;;;5.90;99.90;;;;;;5061388;28;20624;-47
2022/04/09 09:46:52;;;;;;;8.10;1.37;;;5.90;99.90;;;;;;5046328;28;20242;-50
2022/04/09 09:49:20;;;;;;;8.70;1.27;;;5.90;99.90;;;;;;5059362;28;20198;-48
2022/04/09 09:52:03;;;;;;;11.10;2.20;;;6.00;99.90;;;;;;5060755;28;20862;-45
2022/04/09 09:54:30;;;;;;;4.27;1.00;;;6.00;99.90;;;;;;5055508;28;20205;-46
2022/04/09 09:56:57;;;;;;;7.07;1.70;;;6.10;99.90;;;;;;5058827;28;20222;-50
2022/04/09 09:59:26;;;;;;;3.97;0.90;;;6.30;99.90;;;;;;5064870;28;20581;-46
2022/04/09 10:01:55;;;;;;;2.13;0.80;;;6.40;99.90;;;;;;5060796;28;20827;-46
2022/04/09 10:04:22;;;;;;;2.67;1.20;;;6.60;99.90;;;;;;5046938;28;20282;-46
2022/04/09 10:06:48;;;;;;;4.87;1.00;;;6.80;99.90;;;;;;5055204;28;20198;-48
2022/04/09 10:09:17;;;;;;;3.70;0.97;;;6.90;99.90;;;;;;5061198;28;20203;-45
2022/04/09 10:11:49;;;;;;;6.10;1.10;;;6.90;99.90;;;;;;5053533;28;20758;-45
2022/04/09 10:14:23;;;;;;;3.80;0.87;;;7.00;99.90;;;;;;5057795;28;20202;-50
2022/04/09 10:16:51;;;;;;;1.87;0.87;;;7.10;99.90;;;;;;5052372;28;20862;-47
2022/04/09 10:19:21;;;;;;;5.93;0.90;;;7.20;99.90;;;;;;5048932;28;20210;-51
2022/04/09 10:21:51;;;;;;;2.73;0.80;;;7.40;99.90;;;;;;5055096;28;20203;-48
2022/04/09 10:24:22;;;;;;;1.33;0.60;;;7.50;99.90;;;;;;5063784;28;20248;-45
2022/04/09 10:26:49;;;;;;;2.60;0.67;;;7.40;99.90;;;;;;5055747;28;20198;-49
2022/04/09 10:29:16;;;;;;;2.33;0.70;;;7.20;99.90;;;;;;5051254;28;20299;-47
2022/04/09 10:31:43;;;;;;;3.03;0.60;;;6.90;99.90;;;;;;5059991;28;20202;-45
2022/04/09 10:34:11;;;;;;;3.53;0.63;;;6.50;99.90;;;;;;5040602;28;20659;-48
2022/04/09 10:37:02;;;;;;;2.47;0.60;;;6.20;99.90;;;;;;5052788;28;20211;-46
2022/04/09 10:39:36;;;;;;;2.03;0.53;;;5.90;99.90;;;;;;5055491;28;20222;-47
2022/04/09 10:42:04;;;;;;;5.00;0.77;;;5.80;99.90;;;;;;5061895;28;20207;-48
2022/04/09 10:44:52;;;;;;;2.33;1.07;;;5.80;99.90;;;;;;5060540;28;20205;-45
2022/04/09 10:47:19;;;;;;;2.73;1.10;;;5.70;99.90;;;;;;5058204;28;20293;-46
2022/04/09 10:50:11;;;;;;;4.60;1.20;;;5.80;99.90;;;;;;5058508;28;20198;-47
2022/04/09 10:52:40;;;;;;;6.70;0.80;;;6.00;99.90;;;;;;5056908;28;20873;-48
2022/04/09 10:55:31;;;;;;;4.77;0.90;;;6.10;99.90;;;;;;5057369;28;20603;-47
2022/04/09 10:58:04;;;;;;;9.03;1.07;;;6.20;99.90;;;;;;5060925;28;20303;-48
2022/04/09 11:00:34;;;;;;;4.13;0.80;;;6.20;99.90;;;;;;5060485;28;20301;-47
2022/04/09 11:03:33;;;;;;;4.73;1.10;;;6.40;99.90;;;;;;5062585;28;20257;-45
2022/04/09 11:06:29;;;;;;;2.97;0.87;;;6.50;99.90;;;;;;5046959;28;20218;-50
2022/04/09 11:08:59;;;;;;;3.77;1.53;;;6.70;99.90;;;;;;5054764;28;20297;-45
2022/04/09 11:11:26;;;;;;;4.67;1.00;;;6.90;99.90;;;;;;5053309;28;20237;-48
2022/04/09 11:13:54;;;;;;;4.53;0.80;;;7.10;99.90;;;;;;5059289;28;20185;-44
2022/04/09 11:16:21;;;;;;;5.27;0.90;;;7.20;99.90;;;;;;5059102;28;20285;-50
2022/04/09 11:18:48;;;;;;;3.93;1.03;;;8.10;99.90;;;;;;5051476;28;20230;-49
2022/04/09 11:21:14;;;;;;;5.57;0.83;;;7.20;99.90;;;;;;5061868;28;20707;-45
2022/04/09 11:23:44;;;;;;;4.03;0.93;;;7.30;99.90;;;;;;5046640;28;20209;-45
2022/04/09 11:26:17;;;;;;;3.80;0.70;;;7.30;99.90;;;;;;5052159;28;20213;-48
2022/04/09 11:28:45;;;;;;;5.07;0.60;;;7.40;99.90;;;;;;5054367;28;20302;-49
2022/04/09 11:31:11;;;;;;;5.43;0.90;;;7.40;99.90;;;;;;5061809;28;20256;-46
2022/04/09 11:33:55;;;;;;;3.03;0.73;;;7.40;99.90;;;;;;5058001;28;20191;-49
2022/04/09 11:36:22;;;;;;;2.37;0.80;;;7.60;99.90;;;;;;5058962;28;20356;-45
2022/04/09 11:38:49;;;;;;;6.57;1.00;;;7.60;99.90;;;;;;5047178;28;20219;-48
2022/04/09 11:41:20;;;;;;;6.43;1.20;;;7.70;99.90;;;;;;5055826;28;20210;-50
2022/04/09 11:43:47;;;;;;;2.50;0.50;;;7.50;99.90;;;;;;5056947;28;20679;-48
2022/04/09 11:46:14;;;;;;;3.60;0.90;;;6.90;99.90;;;;;;5059318;28;20187;-45
2022/04/09 11:48:41;;;;;;;4.77;0.90;;;6.40;99.90;;;;;;5063030;28;20218;-49
2022/04/09 11:51:18;;;;;;;5.27;1.27;;;6.20;99.90;;;;;;5055213;28;20198;-49
2022/04/09 11:53:44;;;;;;;4.73;1.30;;;6.30;99.90;;;;;;5050455;28;20419;-44
2022/04/09 11:56:12;;;;;;;3.40;1.30;;;6.40;99.90;;;;;;5059319;28;20198;-45
2022/04/09 11:58:40;;;;;;;6.90;1.23;;;6.60;99.90;;;;;;5059399;28;20223;-46
2022/04/09 12:01:08;;;;;;;14.73;1.93;;;6.80;99.90;;;;;;5056619;28;20210;-48
2022/04/09 12:03:36;;;;;;;4.63;1.33;;;7.10;99.90;;;;;;5060029;28;20191;-44
2022/04/09 12:06:02;;;;;;;8.57;1.70;;;7.20;99.90;;;;;;5053876;28;21634;-45
2022/04/09 12:08:33;;;;;;;5.00;1.50;;;7.50;99.90;;;;;;5044108;28;22507;-47
2022/04/09 12:11:01;;;;;;;6.53;1.37;;;7.60;99.90;;;;;;5057285;28;20253;-44
2022/04/09 12:13:30;;;;;;;6.77;1.77;;;7.70;99.90;;;;;;5049483;28;20205;-48
2022/04/09 12:16:03;;;;;;;7.53;1.50;;;7.70;99.90;;;;;;5051140;28;20266;-48
2022/04/09 12:18:32;;;;;;;5.90;1.73;;;7.90;99.90;;;;;;5049482;28;20966;-44
2022/04/09 12:21:02;;;;;;;7.53;2.10;;;8.10;99.90;;;;;;5052458;28;20226;-49
2022/04/09 12:23:30;;;;;;;8.57;1.90;;;8.10;99.90;;;;;;5050521;28;20210;-44
2022/04/09 12:25:57;;;;;;;11.20;1.57;;;8.10;99.90;;;;;;5042947;28;20195;-45
2022/04/09 12:28:28;;;;;;;3.03;1.33;;;8.20;99.90;;;;;;5041510;28;21442;-47
2022/04/09 12:30:56;;;;;;;7.87;1.77;;;8.10;99.90;;;;;;5054184;28;20207;-48
2022/04/09 12:33:25;;;;;;;5.70;1.23;;;7.70;99.90;;;;;;5056113;28;20191;-44
2022/04/09 12:35:53;;;;;;;11.93;2.03;;;7.30;99.90;;;;;;5053679;28;20206;-45
2022/04/09 12:38:34;;;;;;;3.20;1.70;;;7.10;99.90;;;;;;5050264;28;20233;-45
2022/04/09 12:41:04;;;;;;;7.43;1.70;;;7.10;99.90;;;;;;5052098;28;20243;-45
2022/04/09 12:43:34;;;;;;;9.83;2.50;;;7.20;99.90;;;;;;5058700;28;21012;-45
2022/04/09 12:46:06;;;;;;;13.20;2.90;;;7.30;99.90;;;;;;5057587;28;20265;-50
2022/04/09 12:48:45;;;;;;;4.90;1.73;;;7.30;99.90;;;;;;5061082;28;20299;-45
2022/04/09 12:51:14;;;;;;;7.80;1.90;;;7.00;99.90;;;;;;5053475;28;20942;-47
2022/04/09 12:53:43;;;;;;;6.07;1.47;;;6.40;99.90;;;;;;5059481;28;20203;-49
2022/04/09 12:56:12;;;;;;;4.70;1.83;;;6.00;99.90;;;;;;5039604;28;20211;-50
2022/04/09 12:58:39;;;;;;;3.10;1.10;;;5.80;99.90;;;;;;5063326;28;20211;-46
2022/04/09 13:01:07;;;;;;;11.60;1.80;;;5.80;99.90;;;;;;5050070;28;20633;-49
2022/04/09 13:03:34;;;;;;;6.60;1.73;;;5.80;99.90;;;;;;5055067;28;20214;-45
2022/04/09 13:06:02;;;;;;;9.13;1.90;;;5.70;99.90;;;;;;5058012;28;20274;-45